首页
METAR-TAF:

METAR-TAF

机场 :

New Richmond Regional Airport

New Richmond, 威斯康辛州, 美国

纬度: 45-08-54N, 经度: 092-32-17W, 海拔: 304米

当前天气观测

该预报发布于15分钟前的11:55 UTC
风速11节,风向东转东南,有时为21节阵风
温度 19°C
湿度 94%
气压 1008 hPa
能見度: 16.1公里
散云层高于2200英尺
散云层高于4600英尺
多云层高于9500英尺
小雨

METAR: KRNH 091155Z AUTO 12011G21KT 10SM -RA SCT022 SCT046 BKN095 19/18 A2978 RMK AO2 P0012 60034 70035 T01910175 10245 20191

时间: 07:10 (12:10 UTC)

预报

该预报发布于50分钟前的11:20 UTC
预报有效从09日的 12点(UTC)到 10日的 12点(UTC)
风速6节,风向东转东南
能見度: 10公里
散云层高于3500英尺
多云层高于7000英尺
阴天层高于15000英尺
附近有阵雨
从 09日的 1900点(UTC)
风速7节,风向西
能見度: 10公里
多云层高于20000英尺

TAF: KRNH 091120Z 0912/1012 12006KT P6SM VCSH SCT035 BKN070 OVC150 FM091900 28007KT P6SM BKN200

超过4000个机场的气象观测和天气预报(METAR&TAF报告)。

可查询的气象台以黄色和红色小点在地图上表示。

将鼠标移到小点上方,可查看气象台名称。

然后点击查看天气观测和预报。

如需切换地图:点击带黑十字的绿色按钮放大地图;点击带横线的绿色按钮缩小地图;或者点击绿色箭头查看邻近地区的地图。


METAR-TAF: